Southlake's Hourly Summary for Monday, July 9, 2018
Hour Temp
(f)
RH
(%)
Solar Rad.
(MJ/m2)
Rainfall
(in)
Wind
(mph)
7/9/2018 12:00 AM 80 71 0 0 1.72
7/9/2018 1:00 AM 79 74 0 0 2.63
7/9/2018 2:00 AM 78 77 0 0 1.9
7/9/2018 3:00 AM 77 81 0 0 2.46
7/9/2018 4:00 AM 77 83 0 0 2.24
7/9/2018 5:00 AM 76 85 0 0 1.96
7/9/2018 6:00 AM 76 87 0.01 0 1.29
7/9/2018 7:00 AM 77 84 0.31 0 1.68
7/9/2018 8:00 AM 76 92 0.99 0 2.4
7/9/2018 9:00 AM 81 74 1.69 0 1.51
7/9/2018 10:00 AM 86 61 2.33 0 2.63
7/9/2018 11:00 AM 87 58 1.73 0 3.25
7/9/2018 12:00 PM 88 53 2.73 0 3.08
7/9/2018 1:00 PM 89 53 1.48 0 3.92
7/9/2018 2:00 PM 86 60 1.45 0.17 5.48
7/9/2018 3:00 PM 83 77 2.29 0.05 4.87
7/9/2018 4:00 PM 87 60 2.49 0 5.93
7/9/2018 5:00 PM 87 58 0.82 0 3.92
7/9/2018 6:00 PM 87 60 0.36 0 4.03
7/9/2018 7:00 PM 86 62 0.18 0 4.92
7/9/2018 8:00 PM 82 70 0.08 0 4.75
7/9/2018 9:00 PM 81 73 0 0 2.07
7/9/2018 10:00 PM 81 77 0 0 1.79
7/9/2018 11:00 PM 80 77 0 0 1.79
Data Summary 81 71 18.94 0.22 3.01